sensor_id;sensor_type;location;lat;lon;timestamp;temperature;humidity
35425;DHT22;21537;48.226;16.400;2022-10-17T00:02:21;13.10;99.90
35425;DHT22;21537;48.226;16.400;2022-10-17T00:04:46;13.10;99.90
35425;DHT22;21537;48.226;16.400;2022-10-17T00:07:12;13.00;99.90
35425;DHT22;21537;48.226;16.400;2022-10-17T00:09:40;13.00;99.90
35425;DHT22;21537;48.226;16.400;2022-10-17T00:12:06;13.00;99.90
35425;DHT22;21537;48.226;16.400;2022-10-17T00:14:32;12.90;99.90
35425;DHT22;21537;48.226;16.400;2022-10-17T00:16:57;12.90;99.90
35425;DHT22;21537;48.226;16.400;2022-10-17T00:19:23;12.90;99.90
35425;DHT22;21537;48.226;16.400;2022-10-17T00:21:49;12.90;99.90
35425;DHT22;21537;48.226;16.400;2022-10-17T00:24:14;12.80;99.90
35425;DHT22;21537;48.226;16.400;2022-10-17T00:26:40;12.80;99.90
35425;DHT22;21537;48.226;16.400;2022-10-17T00:29:05;12.80;99.90
35425;DHT22;21537;48.226;16.400;2022-10-17T00:31:31;12.80;99.90
35425;DHT22;21537;48.226;16.400;2022-10-17T00:33:57;12.80;99.90
35425;DHT22;21537;48.226;16.400;2022-10-17T00:36:23;12.80;99.90
35425;DHT22;21537;48.226;16.400;2022-10-17T00:38:51;12.80;99.90
35425;DHT22;21537;48.226;16.400;2022-10-17T00:41:19;12.80;99.90
35425;DHT22;21537;48.226;16.400;2022-10-17T00:46:17;12.70;99.90
35425;DHT22;21537;48.226;16.400;2022-10-17T00:48:42;12.70;99.90
35425;DHT22;21537;48.226;16.400;2022-10-17T00:51:08;12.70;99.90
35425;DHT22;21537;48.226;16.400;2022-10-17T00:53:34;12.70;99.90
35425;DHT22;21537;48.226;16.400;2022-10-17T00:56:02;12.70;99.90
35425;DHT22;21537;48.226;16.400;2022-10-17T00:58:28;12.70;99.90
35425;DHT22;21537;48.226;16.400;2022-10-17T01:00:54;12.70;99.90
35425;DHT22;21537;48.226;16.400;2022-10-17T01:03:19;12.60;99.90
35425;DHT22;21537;48.226;16.400;2022-10-17T01:05:45;12.60;99.90
35425;DHT22;21537;48.226;16.400;2022-10-17T01:08:12;12.60;99.90
35425;DHT22;21537;48.226;16.400;2022-10-17T01:13:11;12.60;99.90
35425;DHT22;21537;48.226;16.400;2022-10-17T01:18:28;12.60;99.90
35425;DHT22;21537;48.226;16.400;2022-10-17T01:26:04;12.50;99.90
35425;DHT22;21537;48.226;16.400;2022-10-17T01:31:13;12.50;99.90
35425;DHT22;21537;48.226;16.400;2022-10-17T01:33:53;12.40;99.90
35425;DHT22;21537;48.226;16.400;2022-10-17T01:38:59;12.40;99.90
35425;DHT22;21537;48.226;16.400;2022-10-17T01:41:33;12.40;99.90
35425;DHT22;21537;48.226;16.400;2022-10-17T01:46:35;12.30;99.90
35425;DHT22;21537;48.226;16.400;2022-10-17T01:49:02;12.30;99.90
35425;DHT22;21537;48.226;16.400;2022-10-17T01:51:29;12.30;99.90
35425;DHT22;21537;48.226;16.400;2022-10-17T01:53:59;12.30;99.90
35425;DHT22;21537;48.226;16.400;2022-10-17T01:56:26;12.30;99.90
35425;DHT22;21537;48.226;16.400;2022-10-17T01:58:59;12.30;99.90
35425;DHT22;21537;48.226;16.400;2022-10-17T02:01:30;12.30;99.90
35425;DHT22;21537;48.226;16.400;2022-10-17T02:03:58;12.30;99.90
35425;DHT22;21537;48.226;16.400;2022-10-17T02:06:26;12.30;99.90
35425;DHT22;21537;48.226;16.400;2022-10-17T02:08:52;12.30;99.90
35425;DHT22;21537;48.226;16.400;2022-10-17T02:11:19;12.30;99.90
35425;DHT22;21537;48.226;16.400;2022-10-17T02:21:35;12.20;99.90
35425;DHT22;21537;48.226;16.400;2022-10-17T02:26:51;12.20;99.90
35425;DHT22;21537;48.226;16.400;2022-10-17T02:29:20;12.20;99.90
35425;DHT22;21537;48.226;16.400;2022-10-17T02:31:55;12.20;99.90
35425;DHT22;21537;48.226;16.400;2022-10-17T02:34:42;12.20;99.90
35425;DHT22;21537;48.226;16.400;2022-10-17T02:37:09;12.20;99.90
35425;DHT22;21537;48.226;16.400;2022-10-17T02:39:36;12.10;99.90
35425;DHT22;21537;48.226;16.400;2022-10-17T02:42:04;12.10;99.90
35425;DHT22;21537;48.226;16.400;2022-10-17T02:44:30;12.10;99.90
35425;DHT22;21537;48.226;16.400;2022-10-17T02:47:05;12.10;99.90
35425;DHT22;21537;48.226;16.400;2022-10-17T02:49:35;12.00;99.90
35425;DHT22;21537;48.226;16.400;2022-10-17T02:54:32;12.00;99.90
35425;DHT22;21537;48.226;16.400;2022-10-17T02:57:04;12.00;99.90
35425;DHT22;21537;48.226;16.400;2022-10-17T02:59:32;12.00;99.90
35425;DHT22;21537;48.226;16.400;2022-10-17T03:02:03;12.00;99.90
35425;DHT22;21537;48.226;16.400;2022-10-17T03:04:30;11.90;99.90
35425;DHT22;21537;48.226;16.400;2022-10-17T03:06:55;11.90;99.90
35425;DHT22;21537;48.226;16.400;2022-10-17T03:09:22;11.90;99.90
35425;DHT22;21537;48.226;16.400;2022-10-17T03:11:49;11.90;99.90
35425;DHT22;21537;48.226;16.400;2022-10-17T03:14:15;11.90;99.90
35425;DHT22;21537;48.226;16.400;2022-10-17T03:16:41;11.90;99.90
35425;DHT22;21537;48.226;16.400;2022-10-17T03:19:07;11.80;99.90
35425;DHT22;21537;48.226;16.400;2022-10-17T03:21:33;11.80;99.90
35425;DHT22;21537;48.226;16.400;2022-10-17T03:24:01;11.80;99.90
35425;DHT22;21537;48.226;16.400;2022-10-17T03:26:27;11.80;99.90
35425;DHT22;21537;48.226;16.400;2022-10-17T03:28:54;11.80;99.90
35425;DHT22;21537;48.226;16.400;2022-10-17T03:31:21;11.70;99.90
35425;DHT22;21537;48.226;16.400;2022-10-17T03:33:47;11.70;99.90
35425;DHT22;21537;48.226;16.400;2022-10-17T03:36:13;11.70;99.90
35425;DHT22;21537;48.226;16.400;2022-10-17T03:38:40;11.70;99.90
35425;DHT22;21537;48.226;16.400;2022-10-17T03:41:07;11.70;99.90
35425;DHT22;21537;48.226;16.400;2022-10-17T03:43:34;11.70;99.90
35425;DHT22;21537;48.226;16.400;2022-10-17T03:46:00;11.70;99.90
35425;DHT22;21537;48.226;16.400;2022-10-17T03:48:26;11.60;99.90
35425;DHT22;21537;48.226;16.400;2022-10-17T03:50:59;11.60;99.90
35425;DHT22;21537;48.226;16.400;2022-10-17T03:53:26;11.60;99.90
35425;DHT22;21537;48.226;16.400;2022-10-17T03:55:52;11.60;99.90
35425;DHT22;21537;48.226;16.400;2022-10-17T03:58:18;11.60;99.90
35425;DHT22;21537;48.226;16.400;2022-10-17T04:00:44;11.50;99.90
35425;DHT22;21537;48.226;16.400;2022-10-17T04:03:10;11.50;99.90
35425;DHT22;21537;48.226;16.400;2022-10-17T04:05:36;11.50;99.90
35425;DHT22;21537;48.226;16.400;2022-10-17T04:08:03;11.50;99.90
35425;DHT22;21537;48.226;16.400;2022-10-17T04:10:48;11.50;99.90
35425;DHT22;21537;48.226;16.400;2022-10-17T04:13:14;11.50;99.90
35425;DHT22;21537;48.226;16.400;2022-10-17T04:15:40;11.50;99.90
35425;DHT22;21537;48.226;16.400;2022-10-17T04:18:07;11.40;99.90
35425;DHT22;21537;48.226;16.400;2022-10-17T04:20:36;11.40;99.90
35425;DHT22;21537;48.226;16.400;2022-10-17T04:23:02;11.40;99.90
35425;DHT22;21537;48.226;16.400;2022-10-17T04:25:28;11.40;99.90
35425;DHT22;21537;48.226;16.400;2022-10-17T04:27:56;11.50;99.90
35425;DHT22;21537;48.226;16.400;2022-10-17T04:30:22;11.40;99.90
35425;DHT22;21537;48.226;16.400;2022-10-17T04:32:49;11.40;99.90
35425;DHT22;21537;48.226;16.400;2022-10-17T04:35:19;11.40;99.90
35425;DHT22;21537;48.226;16.400;2022-10-17T04:37:50;11.40;99.90
35425;DHT22;21537;48.226;16.400;2022-10-17T04:40:18;11.40;99.90
35425;DHT22;21537;48.226;16.400;2022-10-17T04:42:47;11.50;99.90
35425;DHT22;21537;48.226;16.400;2022-10-17T04:45:17;11.40;99.90
35425;DHT22;21537;48.226;16.400;2022-10-17T04:47:44;11.40;99.90
35425;DHT22;21537;48.226;16.400;2022-10-17T04:50:13;11.40;99.90
35425;DHT22;21537;48.226;16.400;2022-10-17T04:52:39;11.40;99.90
35425;DHT22;21537;48.226;16.400;2022-10-17T04:55:06;11.40;99.90
35425;DHT22;21537;48.226;16.400;2022-10-17T04:57:36;11.40;99.90
35425;DHT22;21537;48.226;16.400;2022-10-17T05:00:10;11.40;99.90
35425;DHT22;21537;48.226;16.400;2022-10-17T05:02:50;11.40;99.90
35425;DHT22;21537;48.226;16.400;2022-10-17T05:05:16;11.40;99.90
35425;DHT22;21537;48.226;16.400;2022-10-17T05:07:46;11.40;99.90
35425;DHT22;21537;48.226;16.400;2022-10-17T05:10:20;11.30;99.90
35425;DHT22;21537;48.226;16.400;2022-10-17T05:13:01;11.30;99.90
35425;DHT22;21537;48.226;16.400;2022-10-17T05:15:59;11.30;99.90
35425;DHT22;21537;48.226;16.400;2022-10-17T05:18:25;11.30;99.90
35425;DHT22;21537;48.226;16.400;2022-10-17T05:20:55;11.30;99.90
35425;DHT22;21537;48.226;16.400;2022-10-17T05:23:28;11.40;99.90
35425;DHT22;21537;48.226;16.400;2022-10-17T05:25:56;11.40;99.90
35425;DHT22;21537;48.226;16.400;2022-10-17T05:28:32;11.40;99.90
35425;DHT22;21537;48.226;16.400;2022-10-17T05:31:08;11.40;99.90
35425;DHT22;21537;48.226;16.400;2022-10-17T05:33:53;11.40;99.90
35425;DHT22;21537;48.226;16.400;2022-10-17T05:36:48;11.40;99.90
35425;DHT22;21537;48.226;16.400;2022-10-17T05:39:33;11.40;99.90
35425;DHT22;21537;48.226;16.400;2022-10-17T05:42:02;11.40;99.90
35425;DHT22;21537;48.226;16.400;2022-10-17T05:44:34;11.40;99.90
35425;DHT22;21537;48.226;16.400;2022-10-17T05:47:15;11.50;99.90
35425;DHT22;21537;48.226;16.400;2022-10-17T05:49:59;11.50;99.90
35425;DHT22;21537;48.226;16.400;2022-10-17T05:52:40;11.60;99.90
35425;DHT22;21537;48.226;16.400;2022-10-17T05:55:09;11.50;99.90
35425;DHT22;21537;48.226;16.400;2022-10-17T05:57:35;11.60;99.90
35425;DHT22;21537;48.226;16.400;2022-10-17T06:00:07;11.60;99.90
35425;DHT22;21537;48.226;16.400;2022-10-17T06:02:50;11.70;99.90
35425;DHT22;21537;48.226;16.400;2022-10-17T06:05:17;11.70;99.90
35425;DHT22;21537;48.226;16.400;2022-10-17T06:07:43;11.80;99.90
35425;DHT22;21537;48.226;16.400;2022-10-17T06:10:11;11.80;99.90
35425;DHT22;21537;48.226;16.400;2022-10-17T06:12:39;11.90;99.90
35425;DHT22;21537;48.226;16.400;2022-10-17T06:15:05;11.90;99.90
35425;DHT22;21537;48.226;16.400;2022-10-17T06:17:33;12.00;99.90
35425;DHT22;21537;48.226;16.400;2022-10-17T06:19:59;12.00;99.90
35425;DHT22;21537;48.226;16.400;2022-10-17T06:22:25;12.10;99.90
35425;DHT22;21537;48.226;16.400;2022-10-17T06:24:53;12.20;99.90
35425;DHT22;21537;48.226;16.400;2022-10-17T06:27:19;12.20;99.90
35425;DHT22;21537;48.226;16.400;2022-10-17T06:29:45;12.30;99.90
35425;DHT22;21537;48.226;16.400;2022-10-17T06:32:11;12.30;99.90
35425;DHT22;21537;48.226;16.400;2022-10-17T06:34:37;12.40;99.90
35425;DHT22;21537;48.226;16.400;2022-10-17T06:37:05;12.50;99.90
35425;DHT22;21537;48.226;16.400;2022-10-17T06:39:33;12.50;99.90
35425;DHT22;21537;48.226;16.400;2022-10-17T06:42:04;12.60;99.90
35425;DHT22;21537;48.226;16.400;2022-10-17T06:45:02;12.70;99.90
35425;DHT22;21537;48.226;16.400;2022-10-17T06:47:52;12.80;99.90
35425;DHT22;21537;48.226;16.400;2022-10-17T06:50:40;12.90;99.90
35425;DHT22;21537;48.226;16.400;2022-10-17T06:53:11;13.00;99.90
35425;DHT22;21537;48.226;16.400;2022-10-17T06:55:52;13.00;99.90
35425;DHT22;21537;48.226;16.400;2022-10-17T06:58:41;13.10;99.90
35425;DHT22;21537;48.226;16.400;2022-10-17T07:01:27;13.20;99.90
35425;DHT22;21537;48.226;16.400;2022-10-17T07:03:57;13.30;99.90
35425;DHT22;21537;48.226;16.400;2022-10-17T07:06:22;13.40;99.90
35425;DHT22;21537;48.226;16.400;2022-10-17T07:08:54;13.50;99.90
35425;DHT22;21537;48.226;16.400;2022-10-17T07:11:20;13.60;99.90
35425;DHT22;21537;48.226;16.400;2022-10-17T07:13:49;13.60;99.90
35425;DHT22;21537;48.226;16.400;2022-10-17T07:16:20;13.70;99.90
35425;DHT22;21537;48.226;16.400;2022-10-17T07:18:50;13.80;99.90
35425;DHT22;21537;48.226;16.400;2022-10-17T07:21:16;13.90;99.90
35425;DHT22;21537;48.226;16.400;2022-10-17T07:23:42;14.00;99.90
35425;DHT22;21537;48.226;16.400;2022-10-17T07:26:09;14.00;99.90
35425;DHT22;21537;48.226;16.400;2022-10-17T07:28:37;14.10;99.90
35425;DHT22;21537;48.226;16.400;2022-10-17T07:31:20;14.10;99.90
35425;DHT22;21537;48.226;16.400;2022-10-17T07:33:47;14.20;99.90
35425;DHT22;21537;48.226;16.400;2022-10-17T07:36:13;14.20;99.90
35425;DHT22;21537;48.226;16.400;2022-10-17T07:38:39;14.20;99.90
35425;DHT22;21537;48.226;16.400;2022-10-17T07:41:06;14.30;99.90
35425;DHT22;21537;48.226;16.400;2022-10-17T07:43:32;14.40;99.90
35425;DHT22;21537;48.226;16.400;2022-10-17T07:46:01;14.40;99.90
35425;DHT22;21537;48.226;16.400;2022-10-17T07:48:26;14.50;99.90
35425;DHT22;21537;48.226;16.400;2022-10-17T07:50:53;14.70;99.90
35425;DHT22;21537;48.226;16.400;2022-10-17T07:53:21;14.80;99.90
35425;DHT22;21537;48.226;16.400;2022-10-17T07:55:46;14.90;99.90
35425;DHT22;21537;48.226;16.400;2022-10-17T07:58:14;15.00;99.90
35425;DHT22;21537;48.226;16.400;2022-10-17T08:00:39;15.20;99.90
35425;DHT22;21537;48.226;16.400;2022-10-17T08:03:05;15.30;99.90
35425;DHT22;21537;48.226;16.400;2022-10-17T08:05:31;15.40;99.90
35425;DHT22;21537;48.226;16.400;2022-10-17T08:07:57;15.40;99.90
35425;DHT22;21537;48.226;16.400;2022-10-17T08:10:23;15.60;99.90
35425;DHT22;21537;48.226;16.400;2022-10-17T08:12:54;15.70;99.90
35425;DHT22;21537;48.226;16.400;2022-10-17T08:15:20;15.80;99.90
35425;DHT22;21537;48.226;16.400;2022-10-17T08:17:46;15.90;99.90
35425;DHT22;21537;48.226;16.400;2022-10-17T08:20:11;15.90;99.90
35425;DHT22;21537;48.226;16.400;2022-10-17T08:22:37;16.00;99.90
35425;DHT22;21537;48.226;16.400;2022-10-17T08:25:03;16.10;99.90
35425;DHT22;21537;48.226;16.400;2022-10-17T08:27:29;16.10;99.90
35425;DHT22;21537;48.226;16.400;2022-10-17T08:29:54;16.20;99.90
35425;DHT22;21537;48.226;16.400;2022-10-17T08:32:21;16.30;99.90
35425;DHT22;21537;48.226;16.400;2022-10-17T08:34:47;16.40;99.90
35425;DHT22;21537;48.226;16.400;2022-10-17T08:37:13;16.70;99.90
35425;DHT22;21537;48.226;16.400;2022-10-17T08:39:39;17.20;99.90
35425;DHT22;21537;48.226;16.400;2022-10-17T08:47:37;19.20;99.90
35425;DHT22;21537;48.226;16.400;2022-10-17T08:50:11;19.60;99.90
35425;DHT22;21537;48.226;16.400;2022-10-17T08:52:44;20.40;99.90
35425;DHT22;21537;48.226;16.400;2022-10-17T08:55:16;21.50;99.90
35425;DHT22;21537;48.226;16.400;2022-10-17T08:57:42;22.30;99.90
35425;DHT22;21537;48.226;16.400;2022-10-17T09:00:16;22.60;99.90
35425;DHT22;21537;48.226;16.400;2022-10-17T09:07:50;23.60;99.90
35425;DHT22;21537;48.226;16.400;2022-10-17T09:10:20;24.40;99.90
35425;DHT22;21537;48.226;16.400;2022-10-17T09:17:55;26.10;99.90
35425;DHT22;21537;48.226;16.400;2022-10-17T09:20:23;26.80;99.50
35425;DHT22;21537;48.226;16.400;2022-10-17T09:23:50;27.50;98.40
35425;DHT22;21537;48.226;16.400;2022-10-17T09:25:49;27.70;97.40
35425;DHT22;21537;48.226;16.400;2022-10-17T09:30:46;28.10;96.10
35425;DHT22;21537;48.226;16.400;2022-10-17T09:33:16;28.70;95.20
35425;DHT22;21537;48.226;16.400;2022-10-17T09:35:42;28.60;94.70
35425;DHT22;21537;48.226;16.400;2022-10-17T09:38:16;28.60;94.60
35425;DHT22;21537;48.226;16.400;2022-10-17T09:40:42;28.80;94.30
35425;DHT22;21537;48.226;16.400;2022-10-17T09:43:09;29.10;93.70
35425;DHT22;21537;48.226;16.400;2022-10-17T09:45:39;29.00;93.00
35425;DHT22;21537;48.226;16.400;2022-10-17T09:48:23;29.30;93.00
35425;DHT22;21537;48.226;16.400;2022-10-17T09:50:50;29.00;92.70
35425;DHT22;21537;48.226;16.400;2022-10-17T09:53:24;29.00;92.90
35425;DHT22;21537;48.226;16.400;2022-10-17T09:55:57;28.10;93.50
35425;DHT22;21537;48.226;16.400;2022-10-17T09:58:38;27.80;93.70
35425;DHT22;21537;48.226;16.400;2022-10-17T10:01:14;27.80;94.20
35425;DHT22;21537;48.226;16.400;2022-10-17T10:03:39;27.90;93.70
35425;DHT22;21537;48.226;16.400;2022-10-17T10:06:11;28.20;93.60
35425;DHT22;21537;48.226;16.400;2022-10-17T10:08:50;27.80;93.90
35425;DHT22;21537;48.226;16.400;2022-10-17T10:11:19;28.10;93.70
35425;DHT22;21537;48.226;16.400;2022-10-17T10:13:47;27.90;93.70
35425;DHT22;21537;48.226;16.400;2022-10-17T10:18:39;27.80;93.80
35425;DHT22;21537;48.226;16.400;2022-10-17T10:23:30;28.90;93.00
35425;DHT22;21537;48.226;16.400;2022-10-17T10:26:09;29.30;92.10
35425;DHT22;21537;48.226;16.400;2022-10-17T10:28:36;29.70;91.40
35425;DHT22;21537;48.226;16.400;2022-10-17T10:31:04;29.10;91.60
35425;DHT22;21537;48.226;16.400;2022-10-17T10:33:31;28.80;91.90
35425;DHT22;21537;48.226;16.400;2022-10-17T10:36:01;28.50;92.20
35425;DHT22;21537;48.226;16.400;2022-10-17T10:38:28;28.80;91.90
35425;DHT22;21537;48.226;16.400;2022-10-17T10:40:55;28.20;92.00
35425;DHT22;21537;48.226;16.400;2022-10-17T10:43:31;27.90;92.50
35425;DHT22;21537;48.226;16.400;2022-10-17T10:45:57;28.30;92.30
35425;DHT22;21537;48.226;16.400;2022-10-17T10:48:24;28.00;92.10
35425;DHT22;21537;48.226;16.400;2022-10-17T10:58:53;29.90;90.50
35425;DHT22;21537;48.226;16.400;2022-10-17T11:06:36;30.20;89.50
35425;DHT22;21537;48.226;16.400;2022-10-17T11:11:39;29.10;90.20
35425;DHT22;21537;48.226;16.400;2022-10-17T11:16:53;30.10;89.30
35425;DHT22;21537;48.226;16.400;2022-10-17T11:19:24;30.40;87.70
35425;DHT22;21537;48.226;16.400;2022-10-17T11:24:39;31.30;85.90
35425;DHT22;21537;48.226;16.400;2022-10-17T11:27:07;31.40;84.60
35425;DHT22;21537;48.226;16.400;2022-10-17T11:29:34;30.90;85.10
35425;DHT22;21537;48.226;16.400;2022-10-17T11:34:43;31.00;85.20
35425;DHT22;21537;48.226;16.400;2022-10-17T11:37:14;30.60;85.00
35425;DHT22;21537;48.226;16.400;2022-10-17T11:42:18;30.90;84.00
35425;DHT22;21537;48.226;16.400;2022-10-17T11:44:44;30.80;83.50
35425;DHT22;21537;48.226;16.400;2022-10-17T11:49:49;31.80;82.30
35425;DHT22;21537;48.226;16.400;2022-10-17T11:55:34;31.60;81.40
35425;DHT22;21537;48.226;16.400;2022-10-17T12:02:26;31.70;81.00
35425;DHT22;21537;48.226;16.400;2022-10-17T12:12:24;32.70;78.50
35425;DHT22;21537;48.226;16.400;2022-10-17T12:18:14;31.40;79.50
35425;DHT22;21537;48.226;16.400;2022-10-17T12:21:27;30.90;79.90
35425;DHT22;21537;48.226;16.400;2022-10-17T12:24:53;30.70;80.70
35425;DHT22;21537;48.226;16.400;2022-10-17T12:27:27;30.30;80.30
35425;DHT22;21537;48.226;16.400;2022-10-17T12:30:32;28.90;82.60
35425;DHT22;21537;48.226;16.400;2022-10-17T12:35:50;26.60;87.20
35425;DHT22;21537;48.226;16.400;2022-10-17T12:38:36;25.90;89.50
35425;DHT22;21537;48.226;16.400;2022-10-17T12:44:01;24.80;91.30
35425;DHT22;21537;48.226;16.400;2022-10-17T12:49:44;24.20;92.70
35425;DHT22;21537;48.226;16.400;2022-10-17T12:55:36;23.90;93.40
35425;DHT22;21537;48.226;16.400;2022-10-17T12:58:11;23.80;93.70
35425;DHT22;21537;48.226;16.400;2022-10-17T13:00:57;23.70;94.10
35425;DHT22;21537;48.226;16.400;2022-10-17T13:03:30;23.50;94.30
35425;DHT22;21537;48.226;16.400;2022-10-17T13:06:19;23.40;94.10
35425;DHT22;21537;48.226;16.400;2022-10-17T13:12:11;23.30;94.70
35425;DHT22;21537;48.226;16.400;2022-10-17T13:14:52;23.20;95.40
35425;DHT22;21537;48.226;16.400;2022-10-17T13:17:26;23.10;95.30
35425;DHT22;21537;48.226;16.400;2022-10-17T13:23:27;23.00;96.00
35425;DHT22;21537;48.226;16.400;2022-10-17T13:26:21;23.00;96.10
35425;DHT22;21537;48.226;16.400;2022-10-17T13:32:33;22.90;96.20
35425;DHT22;21537;48.226;16.400;2022-10-17T13:35:13;22.80;96.30
35425;DHT22;21537;48.226;16.400;2022-10-17T13:37:44;22.80;96.80
35425;DHT22;21537;48.226;16.400;2022-10-17T13:40:38;22.70;96.90
35425;DHT22;21537;48.226;16.400;2022-10-17T13:43:29;22.70;97.10
35425;DHT22;21537;48.226;16.400;2022-10-17T13:46:06;22.70;96.90
35425;DHT22;21537;48.226;16.400;2022-10-17T13:52:28;22.70;97.00
35425;DHT22;21537;48.226;16.400;2022-10-17T13:58:23;22.50;97.10
35425;DHT22;21537;48.226;16.400;2022-10-17T14:01:24;22.50;97.30
35425;DHT22;21537;48.226;16.400;2022-10-17T14:04:16;22.50;97.40
35425;DHT22;21537;48.226;16.400;2022-10-17T14:06:58;22.50;97.60
35425;DHT22;21537;48.226;16.400;2022-10-17T14:09:40;22.50;97.30
35425;DHT22;21537;48.226;16.400;2022-10-17T14:12:11;22.50;97.30
35425;DHT22;21537;48.226;16.400;2022-10-17T14:14:47;22.40;97.30
35425;DHT22;21537;48.226;16.400;2022-10-17T14:17:34;22.40;97.10
35425;DHT22;21537;48.226;16.400;2022-10-17T14:20:07;22.30;97.10
35425;DHT22;21537;48.226;16.400;2022-10-17T14:22:34;22.30;96.90
35425;DHT22;21537;48.226;16.400;2022-10-17T14:25:25;22.30;97.00
35425;DHT22;21537;48.226;16.400;2022-10-17T14:27:55;22.20;96.80
35425;DHT22;21537;48.226;16.400;2022-10-17T14:30:46;22.20;96.50
35425;DHT22;21537;48.226;16.400;2022-10-17T14:33:26;22.20;96.60
35425;DHT22;21537;48.226;16.400;2022-10-17T14:36:09;22.10;96.30
35425;DHT22;21537;48.226;16.400;2022-10-17T14:38:47;22.10;96.40
35425;DHT22;21537;48.226;16.400;2022-10-17T14:41:22;22.10;95.90
35425;DHT22;21537;48.226;16.400;2022-10-17T14:43:59;22.00;95.90
35425;DHT22;21537;48.226;16.400;2022-10-17T14:46:31;22.00;96.00
35425;DHT22;21537;48.226;16.400;2022-10-17T14:49:01;21.90;96.00
35425;DHT22;21537;48.226;16.400;2022-10-17T14:51:27;21.90;96.00
35425;DHT22;21537;48.226;16.400;2022-10-17T14:56:26;21.70;95.60
35425;DHT22;21537;48.226;16.400;2022-10-17T14:58:55;21.70;95.80
35425;DHT22;21537;48.226;16.400;2022-10-17T15:01:21;21.60;95.60
35425;DHT22;21537;48.226;16.400;2022-10-17T15:03:49;21.60;95.50
35425;DHT22;21537;48.226;16.400;2022-10-17T15:06:23;21.60;95.60
35425;DHT22;21537;48.226;16.400;2022-10-17T15:08:56;21.50;95.70
35425;DHT22;21537;48.226;16.400;2022-10-17T15:11:25;21.40;95.60
35425;DHT22;21537;48.226;16.400;2022-10-17T15:13:51;21.30;95.60
35425;DHT22;21537;48.226;16.400;2022-10-17T15:16:18;21.30;95.70
35425;DHT22;21537;48.226;16.400;2022-10-17T15:18:49;21.30;95.70
35425;DHT22;21537;48.226;16.400;2022-10-17T15:21:16;21.20;95.70
35425;DHT22;21537;48.226;16.400;2022-10-17T15:23:42;21.20;95.70
35425;DHT22;21537;48.226;16.400;2022-10-17T15:26:15;21.10;95.90
35425;DHT22;21537;48.226;16.400;2022-10-17T15:28:44;21.10;96.20
35425;DHT22;21537;48.226;16.400;2022-10-17T15:31:17;21.00;96.20
35425;DHT22;21537;48.226;16.400;2022-10-17T15:33:43;20.90;96.10
35425;DHT22;21537;48.226;16.400;2022-10-17T15:36:17;20.90;96.30
35425;DHT22;21537;48.226;16.400;2022-10-17T15:38:44;20.80;96.40
35425;DHT22;21537;48.226;16.400;2022-10-17T15:41:10;20.80;96.70
35425;DHT22;21537;48.226;16.400;2022-10-17T15:43:36;20.70;96.80
35425;DHT22;21537;48.226;16.400;2022-10-17T15:46:01;20.60;96.80
35425;DHT22;21537;48.226;16.400;2022-10-17T15:48:30;20.60;97.00
35425;DHT22;21537;48.226;16.400;2022-10-17T15:50:56;20.50;97.10
35425;DHT22;21537;48.226;16.400;2022-10-17T15:53:25;20.40;97.30
35425;DHT22;21537;48.226;16.400;2022-10-17T15:55:51;20.30;96.90
35425;DHT22;21537;48.226;16.400;2022-10-17T15:58:20;20.30;97.10
35425;DHT22;21537;48.226;16.400;2022-10-17T16:00:46;20.30;96.80
35425;DHT22;21537;48.226;16.400;2022-10-17T16:03:12;20.20;96.70
35425;DHT22;21537;48.226;16.400;2022-10-17T16:05:38;20.10;97.10
35425;DHT22;21537;48.226;16.400;2022-10-17T16:08:04;20.00;96.90
35425;DHT22;21537;48.226;16.400;2022-10-17T16:10:39;19.90;96.80
35425;DHT22;21537;48.226;16.400;2022-10-17T16:13:07;19.90;96.90
35425;DHT22;21537;48.226;16.400;2022-10-17T16:15:34;19.90;96.60
35425;DHT22;21537;48.226;16.400;2022-10-17T16:18:00;19.80;96.60
35425;DHT22;21537;48.226;16.400;2022-10-17T16:20:26;19.80;96.70
35425;DHT22;21537;48.226;16.400;2022-10-17T16:22:52;19.70;96.70
35425;DHT22;21537;48.226;16.400;2022-10-17T16:25:26;19.70;96.80
35425;DHT22;21537;48.226;16.400;2022-10-17T16:27:57;19.60;97.10
35425;DHT22;21537;48.226;16.400;2022-10-17T16:30:25;19.60;97.00
35425;DHT22;21537;48.226;16.400;2022-10-17T16:32:51;19.50;97.00
35425;DHT22;21537;48.226;16.400;2022-10-17T16:37:51;19.40;97.40
35425;DHT22;21537;48.226;16.400;2022-10-17T16:40:17;19.40;97.60
35425;DHT22;21537;48.226;16.400;2022-10-17T16:42:43;19.40;98.00
35425;DHT22;21537;48.226;16.400;2022-10-17T16:45:10;19.30;98.10
35425;DHT22;21537;48.226;16.400;2022-10-17T16:47:39;19.30;98.40
35425;DHT22;21537;48.226;16.400;2022-10-17T16:50:05;19.20;98.70
35425;DHT22;21537;48.226;16.400;2022-10-17T16:52:31;19.20;98.70
35425;DHT22;21537;48.226;16.400;2022-10-17T16:54:56;19.10;98.80
35425;DHT22;21537;48.226;16.400;2022-10-17T16:57:22;19.10;98.70
35425;DHT22;21537;48.226;16.400;2022-10-17T16:59:47;19.10;98.80
35425;DHT22;21537;48.226;16.400;2022-10-17T17:02:13;19.00;98.90
35425;DHT22;21537;48.226;16.400;2022-10-17T17:04:39;19.00;98.70
35425;DHT22;21537;48.226;16.400;2022-10-17T17:07:04;19.00;98.80
35425;DHT22;21537;48.226;16.400;2022-10-17T17:09:30;18.90;99.00
35425;DHT22;21537;48.226;16.400;2022-10-17T17:11:56;18.80;99.10
35425;DHT22;21537;48.226;16.400;2022-10-17T17:14:21;18.80;99.30
35425;DHT22;21537;48.226;16.400;2022-10-17T17:16:47;18.80;99.10
35425;DHT22;21537;48.226;16.400;2022-10-17T17:19:13;18.80;99.00
35425;DHT22;21537;48.226;16.400;2022-10-17T17:21:39;18.70;99.10
35425;DHT22;21537;48.226;16.400;2022-10-17T17:24:07;18.70;99.30
35425;DHT22;21537;48.226;16.400;2022-10-17T17:26:33;18.70;99.30
35425;DHT22;21537;48.226;16.400;2022-10-17T17:29:02;18.70;99.60
35425;DHT22;21537;48.226;16.400;2022-10-17T17:31:28;18.60;99.50
35425;DHT22;21537;48.226;16.400;2022-10-17T17:33:54;18.60;99.90
35425;DHT22;21537;48.226;16.400;2022-10-17T17:36:21;18.50;99.90
35425;DHT22;21537;48.226;16.400;2022-10-17T17:38:48;18.50;99.90
35425;DHT22;21537;48.226;16.400;2022-10-17T17:41:14;18.40;99.90
35425;DHT22;21537;48.226;16.400;2022-10-17T17:43:41;18.40;99.90
35425;DHT22;21537;48.226;16.400;2022-10-17T17:46:07;18.40;99.90
35425;DHT22;21537;48.226;16.400;2022-10-17T17:48:32;18.30;99.90
35425;DHT22;21537;48.226;16.400;2022-10-17T17:51:08;18.30;99.90
35425;DHT22;21537;48.226;16.400;2022-10-17T17:53:34;18.20;99.90
35425;DHT22;21537;48.226;16.400;2022-10-17T17:56:04;18.20;99.90